sensor_id;sensor_type;location;lat;lon;timestamp;pressure;altitude;pressure_sealevel;temperature;humidity
43450;BME280;29041;42.266;23.110;2022-07-06T00:01:39;95669.69;;;28.34;56.13
43450;BME280;29041;42.266;23.110;2022-07-06T00:04:26;95687.53;;;27.61;58.45
43450;BME280;29041;42.266;23.110;2022-07-06T00:07:20;95706.16;;;26.25;63.24
43450;BME280;29041;42.266;23.110;2022-07-06T00:10:08;95696.19;;;29.31;53.88
43450;BME280;29041;42.266;23.110;2022-07-06T00:12:55;95701.59;;;26.88;61.43
43450;BME280;29041;42.266;23.110;2022-07-06T00:15:43;95724.28;;;27.71;59.39
43450;BME280;29041;42.266;23.110;2022-07-06T00:18:30;95714.31;;;28.58;57.04
43450;BME280;29041;42.266;23.110;2022-07-06T00:21:17;95706.59;;;27.98;56.45
43450;BME280;29041;42.266;23.110;2022-07-06T00:24:06;95709.75;;;28.13;56.63
43450;BME280;29041;42.266;23.110;2022-07-06T00:26:53;95708.50;;;27.71;57.59
43450;BME280;29041;42.266;23.110;2022-07-06T00:29:41;95698.03;;;29.47;53.09
43450;BME280;29041;42.266;23.110;2022-07-06T00:32:29;95694.78;;;30.06;51.05
43450;BME280;29041;42.266;23.110;2022-07-06T00:35:16;95690.25;;;29.77;51.85
43450;BME280;29041;42.266;23.110;2022-07-06T00:38:03;95704.44;;;30.33;50.66
43450;BME280;29041;42.266;23.110;2022-07-06T00:40:52;95699.97;;;29.59;52.84
43450;BME280;29041;42.266;23.110;2022-07-06T00:43:50;95696.06;;;30.23;50.05
43450;BME280;29041;42.266;23.110;2022-07-06T00:46:37;95698.13;;;30.32;49.63
43450;BME280;29041;42.266;23.110;2022-07-06T00:49:24;95699.88;;;29.50;53.03
43450;BME280;29041;42.266;23.110;2022-07-06T00:52:29;95702.41;;;29.57;53.97
43450;BME280;29041;42.266;23.110;2022-07-06T00:55:17;95700.41;;;29.23;56.33
43450;BME280;29041;42.266;23.110;2022-07-06T00:58:07;95691.34;;;29.57;53.60
43450;BME280;29041;42.266;23.110;2022-07-06T01:00:55;95689.69;;;30.04;52.94
43450;BME280;29041;42.266;23.110;2022-07-06T01:03:42;95710.44;;;29.42;54.60
43450;BME280;29041;42.266;23.110;2022-07-06T01:06:29;95711.91;;;29.56;54.47
43450;BME280;29041;42.266;23.110;2022-07-06T01:09:16;95717.44;;;29.21;54.79
43450;BME280;29041;42.266;23.110;2022-07-06T01:12:04;95714.75;;;30.32;51.49
43450;BME280;29041;42.266;23.110;2022-07-06T01:14:53;95715.63;;;29.98;53.17
43450;BME280;29041;42.266;23.110;2022-07-06T01:17:42;95717.88;;;29.20;55.28
43450;BME280;29041;42.266;23.110;2022-07-06T01:20:31;95706.66;;;29.71;52.00
43450;BME280;29041;42.266;23.110;2022-07-06T01:23:18;95712.88;;;29.40;53.03
43450;BME280;29041;42.266;23.110;2022-07-06T01:26:05;95703.81;;;29.62;51.75
43450;BME280;29041;42.266;23.110;2022-07-06T01:28:52;95704.59;;;29.27;53.94
43450;BME280;29041;42.266;23.110;2022-07-06T01:31:45;95696.25;;;30.51;49.94
43450;BME280;29041;42.266;23.110;2022-07-06T01:34:34;95685.19;;;29.98;50.90
43450;BME280;29041;42.266;23.110;2022-07-06T01:37:22;95680.84;;;30.19;50.50
43450;BME280;29041;42.266;23.110;2022-07-06T01:40:11;95681.75;;;29.14;54.27
43450;BME280;29041;42.266;23.110;2022-07-06T01:42:58;95678.47;;;29.06;55.01
43450;BME280;29041;42.266;23.110;2022-07-06T01:45:45;95681.69;;;29.40;52.70
43450;BME280;29041;42.266;23.110;2022-07-06T01:48:33;95687.94;;;29.18;53.86
43450;BME280;29041;42.266;23.110;2022-07-06T01:51:20;95688.56;;;29.22;53.07
43450;BME280;29041;42.266;23.110;2022-07-06T01:54:09;95683.06;;;29.80;51.01
43450;BME280;29041;42.266;23.110;2022-07-06T01:56:56;95693.19;;;28.52;55.31
43450;BME280;29041;42.266;23.110;2022-07-06T01:59:43;95705.84;;;27.68;57.80
43450;BME280;29041;42.266;23.110;2022-07-06T02:02:30;95694.19;;;28.19;56.93
43450;BME280;29041;42.266;23.110;2022-07-06T02:05:17;95708.94;;;27.99;57.18
43450;BME280;29041;42.266;23.110;2022-07-06T02:08:04;95707.06;;;27.67;58.33
43450;BME280;29041;42.266;23.110;2022-07-06T02:10:53;95712.06;;;28.14;56.53
43450;BME280;29041;42.266;23.110;2022-07-06T02:13:40;95705.53;;;28.08;56.39
43450;BME280;29041;42.266;23.110;2022-07-06T02:16:27;95716.47;;;28.12;55.91
43450;BME280;29041;42.266;23.110;2022-07-06T02:19:14;95705.78;;;28.40;54.31
43450;BME280;29041;42.266;23.110;2022-07-06T02:22:02;95701.22;;;29.46;51.45
43450;BME280;29041;42.266;23.110;2022-07-06T02:24:49;95701.88;;;30.16;49.34
43450;BME280;29041;42.266;23.110;2022-07-06T02:27:37;95663.69;;;30.33;48.12
43450;BME280;29041;42.266;23.110;2022-07-06T02:30:25;95693.41;;;29.88;49.34
43450;BME280;29041;42.266;23.110;2022-07-06T02:33:12;95709.44;;;28.62;53.56
43450;BME280;29041;42.266;23.110;2022-07-06T02:35:59;95713.94;;;28.95;51.84
43450;BME280;29041;42.266;23.110;2022-07-06T02:38:47;95719.88;;;27.74;56.32
43450;BME280;29041;42.266;23.110;2022-07-06T02:41:34;95714.53;;;28.51;52.83
43450;BME280;29041;42.266;23.110;2022-07-06T02:44:22;95712.22;;;28.37;53.33
43450;BME280;29041;42.266;23.110;2022-07-06T02:47:09;95718.84;;;28.78;52.51
43450;BME280;29041;42.266;23.110;2022-07-06T02:49:56;95721.88;;;29.19;51.02
43450;BME280;29041;42.266;23.110;2022-07-06T02:52:43;95718.41;;;29.98;48.72
43450;BME280;29041;42.266;23.110;2022-07-06T02:55:31;95712.19;;;29.94;48.62
43450;BME280;29041;42.266;23.110;2022-07-06T02:58:18;95720.88;;;29.60;48.79
43450;BME280;29041;42.266;23.110;2022-07-06T03:01:06;95712.72;;;30.55;47.10
43450;BME280;29041;42.266;23.110;2022-07-06T03:03:54;95713.19;;;30.00;47.65
43450;BME280;29041;42.266;23.110;2022-07-06T03:06:41;95692.75;;;28.92;51.13
43450;BME280;29041;42.266;23.110;2022-07-06T03:09:28;95707.56;;;28.59;52.36
43450;BME280;29041;42.266;23.110;2022-07-06T03:12:15;95716.63;;;28.86;51.65
43450;BME280;29041;42.266;23.110;2022-07-06T03:15:03;95705.78;;;28.65;51.57
43450;BME280;29041;42.266;23.110;2022-07-06T03:17:51;95708.09;;;28.54;52.63
43450;BME280;29041;42.266;23.110;2022-07-06T03:20:38;95722.81;;;28.51;52.65
43450;BME280;29041;42.266;23.110;2022-07-06T03:23:26;95728.91;;;28.85;51.69
43450;BME280;29041;42.266;23.110;2022-07-06T03:26:13;95710.91;;;28.80;51.90
43450;BME280;29041;42.266;23.110;2022-07-06T03:29:00;95721.25;;;28.89;51.84
43450;BME280;29041;42.266;23.110;2022-07-06T03:31:47;95711.78;;;28.77;52.31
43450;BME280;29041;42.266;23.110;2022-07-06T03:34:36;95714.88;;;28.40;52.91
43450;BME280;29041;42.266;23.110;2022-07-06T03:37:23;95718.50;;;28.76;52.03
43450;BME280;29041;42.266;23.110;2022-07-06T03:40:11;95720.91;;;28.22;53.38
43450;BME280;29041;42.266;23.110;2022-07-06T03:42:59;95728.31;;;28.64;52.30
43450;BME280;29041;42.266;23.110;2022-07-06T03:45:46;95726.34;;;28.52;52.88
43450;BME280;29041;42.266;23.110;2022-07-06T03:48:33;95728.81;;;28.07;54.31
43450;BME280;29041;42.266;23.110;2022-07-06T03:51:22;95726.91;;;28.59;53.13
43450;BME280;29041;42.266;23.110;2022-07-06T03:54:10;95718.09;;;29.83;49.60
43450;BME280;29041;42.266;23.110;2022-07-06T03:56:57;95713.81;;;30.04;48.71
43450;BME280;29041;42.266;23.110;2022-07-06T03:59:44;95715.50;;;29.44;49.37
43450;BME280;29041;42.266;23.110;2022-07-06T04:02:31;95712.44;;;29.64;49.21
43450;BME280;29041;42.266;23.110;2022-07-06T04:05:18;95714.63;;;28.47;52.83
43450;BME280;29041;42.266;23.110;2022-07-06T04:08:08;95716.06;;;29.04;51.14
43450;BME280;29041;42.266;23.110;2022-07-06T04:10:55;95703.97;;;29.10;51.37
43450;BME280;29041;42.266;23.110;2022-07-06T04:13:43;95705.69;;;28.82;51.45
43450;BME280;29041;42.266;23.110;2022-07-06T04:16:30;95719.06;;;28.96;51.55
43450;BME280;29041;42.266;23.110;2022-07-06T04:19:17;95711.44;;;29.71;49.38
43450;BME280;29041;42.266;23.110;2022-07-06T04:22:04;95716.31;;;29.67;49.32
43450;BME280;29041;42.266;23.110;2022-07-06T04:24:53;95727.41;;;29.32;50.45
43450;BME280;29041;42.266;23.110;2022-07-06T04:27:40;95725.19;;;29.62;49.06
43450;BME280;29041;42.266;23.110;2022-07-06T04:30:27;95734.03;;;29.56;49.46
43450;BME280;29041;42.266;23.110;2022-07-06T04:33:15;95729.00;;;29.99;48.33
43450;BME280;29041;42.266;23.110;2022-07-06T04:36:07;95734.97;;;29.75;49.23
43450;BME280;29041;42.266;23.110;2022-07-06T04:38:54;95747.31;;;29.62;49.75
43450;BME280;29041;42.266;23.110;2022-07-06T04:41:43;95747.72;;;29.38;50.72
43450;BME280;29041;42.266;23.110;2022-07-06T04:44:30;95742.59;;;29.49;50.46
43450;BME280;29041;42.266;23.110;2022-07-06T04:47:17;95748.66;;;30.23;48.80
43450;BME280;29041;42.266;23.110;2022-07-06T04:50:05;95754.88;;;30.28;48.90
43450;BME280;29041;42.266;23.110;2022-07-06T04:52:53;95755.63;;;30.50;48.13
43450;BME280;29041;42.266;23.110;2022-07-06T04:55:40;95750.78;;;30.73;47.45
43450;BME280;29041;42.266;23.110;2022-07-06T04:58:29;95758.81;;;30.49;48.26
43450;BME280;29041;42.266;23.110;2022-07-06T05:01:16;95752.63;;;29.91;49.29
43450;BME280;29041;42.266;23.110;2022-07-06T05:04:04;95760.59;;;30.33;49.35
43450;BME280;29041;42.266;23.110;2022-07-06T05:06:51;95760.09;;;30.57;47.67
43450;BME280;29041;42.266;23.110;2022-07-06T05:09:38;95761.91;;;30.82;46.96
43450;BME280;29041;42.266;23.110;2022-07-06T05:12:26;95764.09;;;30.88;47.16
43450;BME280;29041;42.266;23.110;2022-07-06T05:15:14;95769.50;;;30.91;47.08
43450;BME280;29041;42.266;23.110;2022-07-06T05:18:02;95771.38;;;30.63;47.79
43450;BME280;29041;42.266;23.110;2022-07-06T05:20:49;95769.47;;;30.28;48.55
43450;BME280;29041;42.266;23.110;2022-07-06T05:23:36;95767.78;;;30.31;48.99
43450;BME280;29041;42.266;23.110;2022-07-06T05:26:23;95762.22;;;30.21;50.04
43450;BME280;29041;42.266;23.110;2022-07-06T05:29:11;95761.16;;;31.41;46.91
43450;BME280;29041;42.266;23.110;2022-07-06T05:32:00;95763.28;;;31.19;47.16
43450;BME280;29041;42.266;23.110;2022-07-06T05:34:47;95768.00;;;30.14;49.38
43450;BME280;29041;42.266;23.110;2022-07-06T05:37:36;95769.06;;;30.61;48.39
43450;BME280;29041;42.266;23.110;2022-07-06T05:40:23;95779.38;;;31.89;45.70
43450;BME280;29041;42.266;23.110;2022-07-06T05:43:10;95779.38;;;31.98;44.53
43450;BME280;29041;42.266;23.110;2022-07-06T05:45:57;95767.03;;;31.99;43.60
43450;BME280;29041;42.266;23.110;2022-07-06T05:48:46;95779.31;;;31.24;45.07
43450;BME280;29041;42.266;23.110;2022-07-06T05:51:50;95783.94;;;30.01;48.17
43450;BME280;29041;42.266;23.110;2022-07-06T05:54:38;95784.66;;;30.68;47.50
43450;BME280;29041;42.266;23.110;2022-07-06T05:57:25;95789.66;;;29.71;49.09
43450;BME280;29041;42.266;23.110;2022-07-06T06:00:13;95792.81;;;30.72;47.47
43450;BME280;29041;42.266;23.110;2022-07-06T06:03:00;95792.31;;;30.64;44.01
43450;BME280;29041;42.266;23.110;2022-07-06T06:05:49;95792.97;;;30.68;44.28
43450;BME280;29041;42.266;23.110;2022-07-06T06:08:36;95790.75;;;31.54;41.20
43450;BME280;29041;42.266;23.110;2022-07-06T06:11:23;95786.97;;;31.10;43.78
43450;BME280;29041;42.266;23.110;2022-07-06T06:14:10;95793.47;;;30.53;44.06
43450;BME280;29041;42.266;23.110;2022-07-06T06:16:58;95802.38;;;31.89;40.73
43450;BME280;29041;42.266;23.110;2022-07-06T06:19:45;95791.63;;;30.82;42.97
43450;BME280;29041;42.266;23.110;2022-07-06T06:22:43;95796.84;;;31.11;42.07
43450;BME280;29041;42.266;23.110;2022-07-06T06:25:33;95792.06;;;31.12;41.55
43450;BME280;29041;42.266;23.110;2022-07-06T06:28:20;95793.69;;;30.37;43.14
43450;BME280;29041;42.266;23.110;2022-07-06T06:31:08;95795.53;;;30.62;42.33
43450;BME280;29041;42.266;23.110;2022-07-06T06:33:55;95795.09;;;31.64;40.82
43450;BME280;29041;42.266;23.110;2022-07-06T06:36:42;95807.81;;;31.33;41.62
43450;BME280;29041;42.266;23.110;2022-07-06T06:39:30;95800.06;;;31.78;42.36
43450;BME280;29041;42.266;23.110;2022-07-06T06:42:18;95806.47;;;30.97;43.55
43450;BME280;29041;42.266;23.110;2022-07-06T06:45:06;95813.00;;;30.28;44.52
43450;BME280;29041;42.266;23.110;2022-07-06T06:47:53;95804.91;;;31.37;42.33
43450;BME280;29041;42.266;23.110;2022-07-06T06:50:41;95806.28;;;30.60;42.04
43450;BME280;29041;42.266;23.110;2022-07-06T06:53:28;95801.78;;;31.16;40.48
43450;BME280;29041;42.266;23.110;2022-07-06T06:56:17;95804.44;;;31.29;40.53
43450;BME280;29041;42.266;23.110;2022-07-06T06:59:04;95792.66;;;31.85;39.17
43450;BME280;29041;42.266;23.110;2022-07-06T07:01:51;95793.78;;;31.19;39.54
43450;BME280;29041;42.266;23.110;2022-07-06T07:04:38;95790.69;;;31.16;39.88
43450;BME280;29041;42.266;23.110;2022-07-06T07:07:26;95790.47;;;31.89;39.09
43450;BME280;29041;42.266;23.110;2022-07-06T07:10:13;95787.81;;;30.89;39.35
43450;BME280;29041;42.266;23.110;2022-07-06T07:13:01;95780.97;;;33.37;34.73
43450;BME280;29041;42.266;23.110;2022-07-06T07:15:49;95790.31;;;32.30;37.73
43450;BME280;29041;42.266;23.110;2022-07-06T07:18:36;95775.16;;;32.92;36.58
43450;BME280;29041;42.266;23.110;2022-07-06T07:21:23;95780.25;;;32.41;35.70
43450;BME280;29041;42.266;23.110;2022-07-06T07:24:10;95781.16;;;32.48;35.02
43450;BME280;29041;42.266;23.110;2022-07-06T07:26:57;95777.47;;;32.51;35.20
43450;BME280;29041;42.266;23.110;2022-07-06T07:29:46;95781.84;;;32.15;35.52
43450;BME280;29041;42.266;23.110;2022-07-06T07:32:33;95782.72;;;32.39;35.41
43450;BME280;29041;42.266;23.110;2022-07-06T07:35:21;95778.09;;;32.46;36.04
43450;BME280;29041;42.266;23.110;2022-07-06T07:38:08;95777.78;;;33.93;33.66
43450;BME280;29041;42.266;23.110;2022-07-06T07:40:55;95781.19;;;32.90;34.41
43450;BME280;29041;42.266;23.110;2022-07-06T07:43:42;95789.22;;;32.36;35.37
43450;BME280;29041;42.266;23.110;2022-07-06T07:46:31;95781.94;;;32.48;34.75
43450;BME280;29041;42.266;23.110;2022-07-06T07:49:18;95771.09;;;33.02;33.99
43450;BME280;29041;42.266;23.110;2022-07-06T07:52:06;95759.38;;;33.56;34.14
43450;BME280;29041;42.266;23.110;2022-07-06T07:54:54;95772.25;;;33.68;33.91
43450;BME280;29041;42.266;23.110;2022-07-06T07:57:41;95773.13;;;33.99;33.45
43450;BME280;29041;42.266;23.110;2022-07-06T08:00:28;95773.16;;;34.44;32.48
43450;BME280;29041;42.266;23.110;2022-07-06T08:03:18;95777.13;;;33.34;33.63
43450;BME280;29041;42.266;23.110;2022-07-06T08:06:05;95784.56;;;33.77;33.43
43450;BME280;29041;42.266;23.110;2022-07-06T08:08:52;95767.56;;;33.99;32.57
43450;BME280;29041;42.266;23.110;2022-07-06T08:11:40;95771.59;;;34.73;31.80
43450;BME280;29041;42.266;23.110;2022-07-06T08:14:27;95778.19;;;33.37;33.38
43450;BME280;29041;42.266;23.110;2022-07-06T08:17:14;95772.47;;;33.80;33.54
43450;BME280;29041;42.266;23.110;2022-07-06T08:20:04;95771.41;;;33.29;35.59
43450;BME280;29041;42.266;23.110;2022-07-06T08:22:51;95764.34;;;33.91;32.82
43450;BME280;29041;42.266;23.110;2022-07-06T08:25:39;95771.22;;;33.81;33.65
43450;BME280;29041;42.266;23.110;2022-07-06T08:28:26;95757.59;;;34.37;32.11
43450;BME280;29041;42.266;23.110;2022-07-06T08:31:13;95760.75;;;35.10;31.71
43450;BME280;29041;42.266;23.110;2022-07-06T08:34:00;95767.75;;;34.10;32.59
43450;BME280;29041;42.266;23.110;2022-07-06T08:36:49;95760.97;;;33.48;35.55
43450;BME280;29041;42.266;23.110;2022-07-06T08:39:36;95762.88;;;35.36;32.05
43450;BME280;29041;42.266;23.110;2022-07-06T08:42:29;95768.50;;;34.86;32.24
43450;BME280;29041;42.266;23.110;2022-07-06T08:45:16;95779.75;;;32.62;35.64
43450;BME280;29041;42.266;23.110;2022-07-06T08:48:06;95775.78;;;33.20;34.93
43450;BME280;29041;42.266;23.110;2022-07-06T08:50:54;95778.25;;;34.45;32.94
43450;BME280;29041;42.266;23.110;2022-07-06T08:53:46;95776.59;;;35.55;30.47
43450;BME280;29041;42.266;23.110;2022-07-06T08:56:34;95780.59;;;34.23;32.79
43450;BME280;29041;42.266;23.110;2022-07-06T08:59:21;95781.16;;;33.33;34.45
43450;BME280;29041;42.266;23.110;2022-07-06T09:02:09;95771.47;;;35.74;30.82
43450;BME280;29041;42.266;23.110;2022-07-06T09:04:57;95774.75;;;35.72;31.36
43450;BME280;29041;42.266;23.110;2022-07-06T09:07:45;95758.44;;;36.12;30.47
43450;BME280;29041;42.266;23.110;2022-07-06T09:10:36;95761.50;;;38.48;28.42
43450;BME280;29041;42.266;23.110;2022-07-06T09:13:24;95756.63;;;38.26;27.84
43450;BME280;29041;42.266;23.110;2022-07-06T09:16:12;95775.88;;;35.39;31.19
43450;BME280;29041;42.266;23.110;2022-07-06T09:18:59;95763.53;;;36.14;31.47
43450;BME280;29041;42.266;23.110;2022-07-06T09:21:47;95766.72;;;33.44;35.08
43450;BME280;29041;42.266;23.110;2022-07-06T09:24:41;95773.88;;;34.74;32.33
43450;BME280;29041;42.266;23.110;2022-07-06T09:27:30;95771.16;;;36.72;30.50
43450;BME280;29041;42.266;23.110;2022-07-06T09:30:18;95765.84;;;34.46;32.82
43450;BME280;29041;42.266;23.110;2022-07-06T09:33:07;95762.59;;;37.19;31.14
43450;BME280;29041;42.266;23.110;2022-07-06T09:35:54;95761.34;;;35.97;31.64
43450;BME280;29041;42.266;23.110;2022-07-06T09:38:46;95753.00;;;36.56;30.42
43450;BME280;29041;42.266;23.110;2022-07-06T09:41:35;95761.09;;;35.54;30.89
43450;BME280;29041;42.266;23.110;2022-07-06T09:44:25;95755.63;;;34.88;33.53
43450;BME280;29041;42.266;23.110;2022-07-06T09:47:13;95753.00;;;36.88;30.44
43450;BME280;29041;42.266;23.110;2022-07-06T09:50:00;95735.84;;;33.57;35.92
43450;BME280;29041;42.266;23.110;2022-07-06T09:52:53;95740.34;;;33.94;34.54
43450;BME280;29041;42.266;23.110;2022-07-06T09:55:45;95754.19;;;35.49;31.91
43450;BME280;29041;42.266;23.110;2022-07-06T09:58:38;95768.88;;;33.89;34.56
43450;BME280;29041;42.266;23.110;2022-07-06T10:01:27;95749.50;;;33.31;36.25
43450;BME280;29041;42.266;23.110;2022-07-06T10:04:15;95750.28;;;34.55;34.71
43450;BME280;29041;42.266;23.110;2022-07-06T10:07:04;95740.66;;;34.41;33.83
43450;BME280;29041;42.266;23.110;2022-07-06T10:09:53;95728.13;;;34.81;34.81
43450;BME280;29041;42.266;23.110;2022-07-06T10:12:42;95736.22;;;34.19;32.86
43450;BME280;29041;42.266;23.110;2022-07-06T10:15:30;95737.78;;;33.66;35.21
43450;BME280;29041;42.266;23.110;2022-07-06T10:18:20;95717.50;;;34.35;35.09
43450;BME280;29041;42.266;23.110;2022-07-06T10:21:07;95735.00;;;34.35;34.03
43450;BME280;29041;42.266;23.110;2022-07-06T10:23:55;95732.41;;;34.02;33.03
43450;BME280;29041;42.266;23.110;2022-07-06T10:26:47;95734.53;;;35.02;32.15
43450;BME280;29041;42.266;23.110;2022-07-06T10:29:34;95734.34;;;33.71;33.40
43450;BME280;29041;42.266;23.110;2022-07-06T10:32:22;95742.09;;;32.51;37.72
43450;BME280;29041;42.266;23.110;2022-07-06T10:35:11;95741.13;;;34.09;34.38
43450;BME280;29041;42.266;23.110;2022-07-06T10:38:09;95741.38;;;35.22;31.46
43450;BME280;29041;42.266;23.110;2022-07-06T10:41:02;95726.25;;;34.27;32.90
43450;BME280;29041;42.266;23.110;2022-07-06T10:43:48;95740.47;;;34.59;32.66
43450;BME280;29041;42.266;23.110;2022-07-06T10:46:35;95736.53;;;34.51;33.05
43450;BME280;29041;42.266;23.110;2022-07-06T10:49:24;95722.31;;;35.82;29.66
43450;BME280;29041;42.266;23.110;2022-07-06T10:52:16;95733.75;;;34.21;31.96
43450;BME280;29041;42.266;23.110;2022-07-06T10:55:04;95704.50;;;33.72;33.98
43450;BME280;29041;42.266;23.110;2022-07-06T10:57:51;95714.50;;;35.86;30.78
43450;BME280;29041;42.266;23.110;2022-07-06T11:00:57;95729.19;;;36.34;28.98
43450;BME280;29041;42.266;23.110;2022-07-06T11:03:46;95720.91;;;34.39;31.67
43450;BME280;29041;42.266;23.110;2022-07-06T11:06:34;95727.22;;;34.24;32.61
43450;BME280;29041;42.266;23.110;2022-07-06T11:09:31;95721.81;;;36.04;30.29
43450;BME280;29041;42.266;23.110;2022-07-06T11:12:19;95730.63;;;34.79;30.10
43450;BME280;29041;42.266;23.110;2022-07-06T11:15:07;95710.34;;;35.14;29.25
43450;BME280;29041;42.266;23.110;2022-07-06T11:18:12;95711.94;;;36.09;28.76
43450;BME280;29041;42.266;23.110;2022-07-06T11:21:19;95715.69;;;34.46;30.74
43450;BME280;29041;42.266;23.110;2022-07-06T11:24:08;95704.09;;;35.40;31.35
43450;BME280;29041;42.266;23.110;2022-07-06T11:26:58;95707.69;;;35.46;31.27
43450;BME280;29041;42.266;23.110;2022-07-06T11:29:46;95711.31;;;35.32;29.98
43450;BME280;29041;42.266;23.110;2022-07-06T11:32:35;95707.16;;;36.42;28.22
43450;BME280;29041;42.266;23.110;2022-07-06T11:35:22;95706.03;;;35.81;29.83
43450;BME280;29041;42.266;23.110;2022-07-06T11:38:26;95704.00;;;35.55;30.73
43450;BME280;29041;42.266;23.110;2022-07-06T11:41:17;95704.28;;;34.80;30.85
43450;BME280;29041;42.266;23.110;2022-07-06T11:44:05;95685.66;;;33.51;32.00
43450;BME280;29041;42.266;23.110;2022-07-06T11:46:53;95683.19;;;34.58;31.91
43450;BME280;29041;42.266;23.110;2022-07-06T11:49:42;95676.81;;;36.02;28.98
43450;BME280;29041;42.266;23.110;2022-07-06T11:52:31;95674.13;;;36.40;28.30
43450;BME280;29041;42.266;23.110;2022-07-06T11:55:18;95671.81;;;35.86;29.29
43450;BME280;29041;42.266;23.110;2022-07-06T11:58:06;95668.13;;;35.27;28.71
43450;BME280;29041;42.266;23.110;2022-07-06T12:01:04;95685.03;;;35.85;28.57
43450;BME280;29041;42.266;23.110;2022-07-06T12:03:52;95672.13;;;35.00;29.69
43450;BME280;29041;42.266;23.110;2022-07-06T12:06:39;95665.34;;;35.95;28.89
43450;BME280;29041;42.266;23.110;2022-07-06T12:09:29;95666.28;;;35.39;29.58
43450;BME280;29041;42.266;23.110;2022-07-06T12:12:17;95672.06;;;35.15;30.45
43450;BME280;29041;42.266;23.110;2022-07-06T12:15:05;95663.50;;;34.83;30.88
43450;BME280;29041;42.266;23.110;2022-07-06T12:17:53;95666.22;;;34.77;32.90
43450;BME280;29041;42.266;23.110;2022-07-06T12:20:41;95654.75;;;35.52;30.09
43450;BME280;29041;42.266;23.110;2022-07-06T12:23:38;95661.91;;;34.25;30.26
43450;BME280;29041;42.266;23.110;2022-07-06T12:26:28;95658.78;;;34.53;30.68
43450;BME280;29041;42.266;23.110;2022-07-06T12:29:25;95661.09;;;35.32;29.37
43450;BME280;29041;42.266;23.110;2022-07-06T12:32:15;95652.19;;;33.76;30.89
43450;BME280;29041;42.266;23.110;2022-07-06T12:35:06;95649.88;;;34.19;31.06
43450;BME280;29041;42.266;23.110;2022-07-06T12:37:56;95650.88;;;34.67;29.96
43450;BME280;29041;42.266;23.110;2022-07-06T12:40:45;95643.63;;;36.42;27.89
43450;BME280;29041;42.266;23.110;2022-07-06T12:43:37;95660.03;;;34.88;29.77
43450;BME280;29041;42.266;23.110;2022-07-06T12:46:28;95646.75;;;35.65;28.21
43450;BME280;29041;42.266;23.110;2022-07-06T12:49:19;95648.22;;;35.61;29.11
43450;BME280;29041;42.266;23.110;2022-07-06T12:52:11;95641.72;;;35.43;28.72
43450;BME280;29041;42.266;23.110;2022-07-06T12:55:00;95637.78;;;35.82;28.00
43450;BME280;29041;42.266;23.110;2022-07-06T12:57:48;95634.81;;;34.11;30.04
43450;BME280;29041;42.266;23.110;2022-07-06T13:00:44;95638.16;;;36.59;27.33
43450;BME280;29041;42.266;23.110;2022-07-06T13:03:37;95646.06;;;34.67;29.13
43450;BME280;29041;42.266;23.110;2022-07-06T13:06:33;95638.78;;;33.89;30.50
43450;BME280;29041;42.266;23.110;2022-07-06T13:09:22;95639.84;;;35.61;27.82
43450;BME280;29041;42.266;23.110;2022-07-06T13:12:09;95629.16;;;33.75;30.02
43450;BME280;29041;42.266;23.110;2022-07-06T13:14:57;95644.50;;;36.28;27.19
43450;BME280;29041;42.266;23.110;2022-07-06T13:17:44;95626.50;;;35.44;27.98
43450;BME280;29041;42.266;23.110;2022-07-06T13:20:31;95617.97;;;35.33;28.56
43450;BME280;29041;42.266;23.110;2022-07-06T13:23:18;95641.97;;;35.92;27.41
43450;BME280;29041;42.266;23.110;2022-07-06T13:26:07;95642.63;;;35.61;28.05
43450;BME280;29041;42.266;23.110;2022-07-06T13:28:56;95629.19;;;34.91;29.22
43450;BME280;29041;42.266;23.110;2022-07-06T13:31:43;95620.91;;;33.12;30.98
43450;BME280;29041;42.266;23.110;2022-07-06T13:34:30;95635.44;;;35.28;28.32
43450;BME280;29041;42.266;23.110;2022-07-06T13:37:18;95630.66;;;36.07;27.24
43450;BME280;29041;42.266;23.110;2022-07-06T13:40:07;95641.75;;;35.96;26.88
43450;BME280;29041;42.266;23.110;2022-07-06T13:42:56;95631.19;;;34.91;28.05
43450;BME280;29041;42.266;23.110;2022-07-06T13:45:43;95623.75;;;35.50;28.04
43450;BME280;29041;42.266;23.110;2022-07-06T13:48:31;95601.47;;;36.08;26.38
43450;BME280;29041;42.266;23.110;2022-07-06T13:51:18;95609.59;;;35.33;27.08
43450;BME280;29041;42.266;23.110;2022-07-06T13:54:06;95620.50;;;34.69;29.18
43450;BME280;29041;42.266;23.110;2022-07-06T13:56:53;95607.88;;;35.62;27.32
43450;BME280;29041;42.266;23.110;2022-07-06T13:59:42;95597.59;;;36.00;27.39
43450;BME280;29041;42.266;23.110;2022-07-06T14:02:29;95616.31;;;35.67;27.77
43450;BME280;29041;42.266;23.110;2022-07-06T14:05:17;95612.91;;;36.10;27.01
43450;BME280;29041;42.266;23.110;2022-07-06T14:08:04;95611.41;;;35.56;27.89
43450;BME280;29041;42.266;23.110;2022-07-06T14:10:51;95603.56;;;35.14;28.35
43450;BME280;29041;42.266;23.110;2022-07-06T14:13:39;95623.81;;;35.55;27.77
43450;BME280;29041;42.266;23.110;2022-07-06T14:16:28;95598.34;;;34.09;29.67
43450;BME280;29041;42.266;23.110;2022-07-06T14:19:15;95600.63;;;35.23;28.86
43450;BME280;29041;42.266;23.110;2022-07-06T14:22:03;95606.47;;;34.63;28.96
43450;BME280;29041;42.266;23.110;2022-07-06T14:24:50;95610.22;;;35.63;28.06
43450;BME280;29041;42.266;23.110;2022-07-06T14:27:37;95616.91;;;35.04;28.99
43450;BME280;29041;42.266;23.110;2022-07-06T14:30:26;95620.09;;;36.23;26.93
43450;BME280;29041;42.266;23.110;2022-07-06T14:33:15;95605.09;;;35.15;27.08
43450;BME280;29041;42.266;23.110;2022-07-06T14:36:03;95610.78;;;34.28;28.55
43450;BME280;29041;42.266;23.110;2022-07-06T14:38:50;95608.75;;;34.44;27.68
43450;BME280;29041;42.266;23.110;2022-07-06T14:41:37;95619.41;;;35.69;26.26